createdAt,value
2023-02-22T00:01:19.314Z,19.03
2023-02-22T00:06:25.055Z,19.40
2023-02-22T00:11:27.619Z,15.52
2023-02-22T00:16:30.981Z,19.00
2023-02-22T00:21:34.819Z,17.77
2023-02-22T00:26:37.309Z,13.23
2023-02-22T00:31:40.100Z,15.15
2023-02-22T00:36:47.592Z,13.80
2023-02-22T00:41:50.427Z,16.75
2023-02-22T00:46:53.005Z,17.85
2023-02-22T00:51:56.825Z,19.10
2023-02-22T00:56:59.413Z,18.30
2023-02-22T01:02:01.926Z,18.92
2023-02-22T01:07:05.930Z,16.07
2023-02-22T01:12:08.974Z,14.73
2023-02-22T01:17:11.447Z,19.10
2023-02-22T01:22:15.241Z,22.00
2023-02-22T01:27:19.019Z,23.27
2023-02-22T01:32:21.550Z,18.98
2023-02-22T01:37:25.340Z,17.88
2023-02-22T01:42:29.392Z,15.70
2023-02-22T01:47:31.839Z,16.08
2023-02-22T01:52:35.672Z,18.27
2023-02-22T01:57:39.003Z,12.50
2023-02-22T02:02:45.238Z,13.90
2023-02-22T02:07:49.380Z,16.35
2023-02-22T02:12:54.134Z,20.20
2023-02-22T02:18:00.657Z,13.27
2023-02-22T02:23:25.553Z,19.73
2023-02-22T02:28:45.451Z,15.90
2023-02-22T02:33:57.957Z,16.63
2023-02-22T02:39:06.555Z,15.05
2023-02-22T02:44:14.502Z,17.23
2023-02-22T02:49:23.194Z,16.23
2023-02-22T02:54:26.409Z,14.37
2023-02-22T02:59:30.919Z,15.73
2023-02-22T03:04:49.836Z,17.55
2023-02-22T03:10:03.761Z,17.73
2023-02-22T03:15:18.693Z,14.95
2023-02-22T03:20:31.750Z,12.38
2023-02-22T03:25:39.535Z,16.40
2023-02-22T03:30:46.433Z,18.48
2023-02-22T03:35:56.666Z,16.92
2023-02-22T03:41:02.581Z,16.03
2023-02-22T03:46:07.521Z,11.63
2023-02-22T03:51:16.698Z,17.48
2023-02-22T03:56:25.120Z,14.13
2023-02-22T04:01:28.117Z,13.13
2023-02-22T04:06:32.144Z,15.38
2023-02-22T04:11:34.624Z,10.65
2023-02-22T04:16:37.114Z,10.90
2023-02-22T04:21:40.942Z,13.93
2023-02-22T04:26:43.411Z,15.13
2023-02-22T04:31:45.940Z,15.97
2023-02-22T04:36:49.806Z,17.20
2023-02-22T04:41:52.303Z,16.48
2023-02-22T04:46:54.865Z,13.10
2023-02-22T04:51:58.724Z,13.80
2023-02-22T04:57:01.198Z,14.68
2023-02-22T05:02:03.953Z,13.93
2023-02-22T05:07:07.749Z,15.43
2023-02-22T05:12:10.601Z,15.23
2023-02-22T05:17:13.517Z,19.92
2023-02-22T05:22:17.642Z,20.63
2023-02-22T05:27:20.404Z,16.87
2023-02-22T05:32:22.901Z,14.10
2023-02-22T05:37:26.791Z,12.55
2023-02-22T05:42:29.275Z,12.00
2023-02-22T05:47:31.789Z,13.60
2023-02-22T05:52:35.669Z,15.77
2023-02-22T05:57:38.164Z,18.27
2023-02-22T06:02:40.635Z,13.52
2023-02-22T06:07:44.430Z,14.38
2023-02-22T06:12:47.201Z,16.00
2023-02-22T06:17:50.436Z,14.10
2023-02-22T06:22:57.624Z,16.33
2023-02-22T06:28:01.806Z,21.83
2023-02-22T06:33:04.511Z,12.23
2023-02-22T06:38:08.339Z,19.80
2023-02-22T06:43:11.087Z,19.63
2023-02-22T06:48:13.779Z,16.47
2023-02-22T06:53:17.566Z,16.23
2023-02-22T06:58:20.023Z,16.27
2023-02-22T07:03:22.762Z,12.00
2023-02-22T07:08:26.595Z,14.30
2023-02-22T07:13:29.600Z,20.10
2023-02-22T07:18:32.098Z,12.13
2023-02-22T07:23:36.972Z,15.43
2023-02-22T07:28:39.435Z,20.88
2023-02-22T07:33:42.038Z,21.35
2023-02-22T07:38:46.413Z,17.00
2023-02-22T07:43:48.913Z,16.38
2023-02-22T07:48:51.385Z,11.77
2023-02-22T07:53:55.215Z,19.07
2023-02-22T07:58:57.723Z,17.70
2023-02-22T08:04:00.270Z,21.27
2023-02-22T08:09:04.158Z,19.98
2023-02-22T08:14:06.648Z,23.33
2023-02-22T08:19:09.128Z,28.40
2023-02-22T08:36:36.471Z,36.25
2023-02-22T08:41:38.958Z,26.70
2023-02-22T08:46:41.449Z,21.77
2023-02-22T08:51:45.258Z,23.93
2023-02-22T08:56:47.747Z,20.80
2023-02-22T09:01:50.266Z,24.83
2023-02-22T09:06:54.079Z,19.47
2023-02-22T09:11:56.571Z,24.42
2023-02-22T09:16:59.048Z,24.67
2023-02-22T09:22:03.061Z,29.97
2023-02-22T09:27:07.316Z,24.20
2023-02-22T09:32:09.916Z,24.13
2023-02-22T09:37:14.746Z,19.50
2023-02-22T09:42:25.854Z,28.70
2023-02-22T09:47:39.793Z,17.40
2023-02-22T09:52:53.898Z,21.23
2023-02-22T09:57:58.914Z,23.83
2023-02-22T10:03:24.235Z,22.15
2023-02-22T10:08:33.240Z,23.20
2023-02-22T10:13:49.483Z,21.10
2023-02-22T10:19:08.264Z,19.40
2023-02-22T10:24:23.490Z,24.15
2023-02-22T10:29:33.604Z,21.53
2023-02-22T10:34:42.272Z,23.87
2023-02-22T10:39:49.299Z,14.50
2023-02-22T10:44:51.898Z,20.00
2023-02-22T10:49:57.541Z,19.00
2023-02-22T10:55:14.566Z,16.20
2023-02-22T11:00:26.138Z,22.83
2023-02-22T11:05:32.531Z,16.80
2023-02-22T11:10:38.633Z,19.35
2023-02-22T11:15:41.135Z,20.88
2023-02-22T11:20:43.639Z,22.50
2023-02-22T11:25:49.050Z,21.33
2023-02-22T11:30:52.902Z,20.80
2023-02-22T11:35:59.282Z,22.60
2023-02-22T11:41:18.258Z,19.43
2023-02-22T11:46:23.480Z,18.98
2023-02-22T11:51:38.161Z,21.98
2023-02-22T11:56:46.830Z,17.20
2023-02-22T12:01:55.393Z,16.15
2023-02-22T12:07:15.374Z,16.80
2023-02-22T12:12:25.935Z,18.00
2023-02-22T12:17:43.699Z,18.60
2023-02-22T12:22:55.906Z,20.23
2023-02-22T12:28:09.994Z,20.38
2023-02-22T12:33:18.109Z,16.27
2023-02-22T12:38:25.179Z,15.63
2023-02-22T12:43:33.539Z,18.30
2023-02-22T12:48:45.611Z,20.20
2023-02-22T12:53:56.564Z,17.60
2023-02-22T12:59:05.407Z,19.77
2023-02-22T13:04:20.114Z,16.80
2023-02-22T13:09:42.996Z,15.73
2023-02-22T13:21:21.647Z,18.10
2023-02-22T13:26:30.939Z,20.37
2023-02-22T13:31:47.309Z,15.23
2023-02-22T13:37:09.718Z,11.25
2023-02-22T13:42:30.467Z,14.60
2023-02-22T13:47:50.676Z,16.08
2023-02-22T13:52:57.435Z,15.30
2023-02-22T13:58:04.069Z,19.87
2023-02-22T14:03:08.977Z,20.90
2023-02-22T14:08:41.998Z,19.48
2023-02-22T14:14:12.143Z,15.63
2023-02-22T14:19:17.770Z,12.83
2023-02-22T14:24:21.732Z,15.93
2023-02-22T14:29:25.569Z,22.65
2023-02-22T14:34:42.707Z,18.07
2023-02-22T14:39:51.274Z,13.05
2023-02-22T14:45:00.576Z,15.60
2023-02-22T14:50:09.310Z,15.03
2023-02-22T14:55:22.909Z,16.43
2023-02-22T15:00:31.504Z,14.05
2023-02-22T15:05:39.210Z,14.00
2023-02-22T15:10:45.706Z,15.80
2023-02-22T15:15:49.995Z,16.35
2023-02-22T15:20:57.513Z,10.93
2023-02-22T15:26:02.634Z,15.10
2023-02-22T15:31:25.670Z,10.98
2023-02-22T15:36:31.050Z,55.03
2023-02-22T15:41:36.017Z,16.27
2023-02-22T15:46:39.595Z,16.97
2023-02-22T15:51:46.363Z,14.05
2023-02-22T15:56:55.496Z,11.00
2023-02-22T16:01:59.577Z,20.30
2023-02-22T16:07:16.765Z,13.40
2023-02-22T16:12:28.335Z,17.35
2023-02-22T16:17:36.894Z,14.03
2023-02-22T16:22:40.716Z,18.88
2023-02-22T16:27:48.208Z,31.02
2023-02-22T16:32:50.730Z,27.50
2023-02-22T16:37:57.298Z,27.37
2023-02-22T16:43:03.052Z,32.80
2023-02-22T16:48:15.534Z,32.97
2023-02-22T16:53:20.596Z,29.43
2023-02-22T16:58:27.812Z,29.15
2023-02-22T17:03:30.364Z,32.65
2023-02-22T17:08:32.875Z,35.37
2023-02-22T17:13:36.760Z,71.28
2023-02-22T17:18:40.700Z,35.72
2023-02-22T17:23:45.788Z,35.50
2023-02-22T17:28:49.752Z,32.20
2023-02-22T17:33:52.320Z,42.03
2023-02-22T17:38:54.959Z,37.47
2023-02-22T17:43:58.895Z,35.20
2023-02-22T17:49:01.809Z,41.72
2023-02-22T17:54:04.703Z,41.40
2023-02-22T17:59:09.133Z,46.30
2023-02-22T18:04:11.721Z,40.95
2023-02-22T18:09:17.630Z,43.05
2023-02-22T18:14:21.514Z,69.93
2023-02-22T18:19:24.004Z,42.27
2023-02-22T18:24:26.630Z,36.88
2023-02-22T18:29:30.440Z,44.53
2023-02-22T18:34:33.521Z,39.67
2023-02-22T18:39:42.625Z,43.47
2023-02-22T18:44:46.434Z,37.97
2023-02-22T18:49:49.638Z,33.17
2023-02-22T18:54:52.153Z,38.33
2023-02-22T18:59:57.846Z,41.67
2023-02-22T19:05:00.404Z,37.73
2023-02-22T19:10:03.372Z,37.37
2023-02-22T19:15:07.887Z,34.55
2023-02-22T19:20:11.043Z,28.92
2023-02-22T19:25:13.549Z,27.97
2023-02-22T19:30:17.668Z,22.17
2023-02-22T19:35:26.967Z,30.65
2023-02-22T19:40:30.136Z,25.10
2023-02-22T19:45:33.954Z,27.67
2023-02-22T19:50:44.705Z,27.20
2023-02-22T19:55:47.169Z,22.30
2023-02-22T20:00:51.058Z,27.80
2023-02-22T20:05:57.737Z,22.42
2023-02-22T20:11:00.288Z,23.08
2023-02-22T20:16:04.401Z,22.97
2023-02-22T20:21:09.455Z,25.90
2023-02-22T20:26:16.767Z,23.48
2023-02-22T20:31:22.077Z,28.50
2023-02-22T20:36:25.146Z,24.27
2023-02-22T20:41:29.692Z,19.67
2023-02-22T20:46:36.037Z,20.10
2023-02-22T20:51:40.339Z,26.23
2023-02-22T20:56:45.457Z,24.15
2023-02-22T21:01:50.106Z,21.95
2023-02-22T21:06:52.970Z,23.97
2023-02-22T21:11:56.159Z,25.83
2023-02-22T21:17:03.093Z,20.83
2023-02-22T21:22:08.321Z,23.67
2023-02-22T21:27:12.132Z,21.27
2023-02-22T21:32:16.459Z,24.58
2023-02-22T21:37:19.311Z,24.63
2023-02-22T21:42:21.794Z,17.57
2023-02-22T21:47:25.764Z,27.65
2023-02-22T21:52:28.235Z,23.02
2023-02-22T21:57:30.987Z,15.37
2023-02-22T22:02:38.064Z,20.10
2023-02-22T22:07:41.433Z,22.60
2023-02-22T22:12:46.072Z,17.77
2023-02-22T22:17:50.075Z,18.73
2023-02-22T22:22:52.751Z,24.20
2023-02-22T22:27:56.084Z,17.63
2023-02-22T22:32:59.886Z,25.90
2023-02-22T22:38:02.821Z,20.33
2023-02-22T22:43:05.970Z,23.17
2023-02-22T22:48:14.688Z,26.03
2023-02-22T22:53:17.853Z,21.92
2023-02-22T22:58:20.316Z,20.10
2023-02-22T23:03:24.829Z,21.17
2023-02-22T23:08:29.226Z,23.42
2023-02-22T23:13:31.744Z,21.25
2023-02-22T23:18:36.258Z,21.20
2023-02-22T23:23:39.233Z,20.00
2023-02-22T23:28:42.734Z,22.80
2023-02-22T23:33:49.031Z,20.40
2023-02-22T23:38:51.504Z,23.50
2023-02-22T23:43:54.004Z,19.17
2023-02-22T23:49:01.610Z,22.33
2023-02-22T23:54:05.985Z,23.87
2023-02-22T23:59:11.191Z,22.00
